Huvudsida
METAR-TAF:

METAR-TAF

Flygplatser :

Rom-Fiumicinos flygplats

Rom-Fiumicino, Italien

latitud: 41-48N, longitud: 012-14E, höjd: 2 m

Aktuellt väderrapport

Denna rapport gjordes för 31 minuter sedan, klockan 20:20 UTC
Vind 4 kt från nord
Temperatur 10°C
Fuktighet 57%
Tryck 1020 hPa
Sikt 10 km eller mer
Inga moln under 1 500 m eller inga cumulonimbus

METAR: LIRF 162020Z 35004KT CAVOK 10/02 Q1020 NOSIG

Tid: 21:51 (20:51 UTC)

Väderprognos

Denna rapport gjordes för 3 timmar och 51 minuter sedan, klockan 17:00 UTC
Prognos gäller från 16 kl. 18 UTC till 17 kl. 24 UTC
Vind 12 kt från nordost
Sikt 10 km eller mer
Spridda moln på en höjd av 3000 ft
Temporärt
från 16 kl. 18 UTC till 16 kl. 20 UTC
åska, regn

TAF: LIRF 161700Z 1618/1724 04012KT 9999 SCT030 TEMPO 1618/1620 TSRA

Aktuella väderrapporter och prognoser från 4000 flygplatser (METAR- och TAF-rapporter).

De tillgängliga stationerna syns som gula och röda prickar på kartan.

För musen över prickarna för att se namnen på stationerna.

Klicka sedan för att få väderrapporter och prognoser.

För att ändra kartan: Klicka på de gröna knapparna med ett svart kors på för att zooma in; den gröna knappen med ett streck på för att zooma ut; eller på de gröna pilarna för angränsande kartor.


METAR-TAF: